createdAt,value
2019-03-12T00:01:56.012Z,1.70
2019-03-12T00:04:24.926Z,1.65
2019-03-12T00:06:53.847Z,2.62
2019-03-12T00:09:22.702Z,1.65
2019-03-12T00:11:52.197Z,2.05
2019-03-12T00:14:21.772Z,1.77
2019-03-12T00:16:50.381Z,1.80
2019-03-12T00:19:19.003Z,2.10
2019-03-12T00:21:47.732Z,2.00
2019-03-12T00:24:16.366Z,1.80
2019-03-12T00:26:45.017Z,1.62
2019-03-12T00:29:13.670Z,1.95
2019-03-12T00:31:42.292Z,2.33
2019-03-12T00:34:10.960Z,1.98
2019-03-12T00:36:39.595Z,1.60
2019-03-12T00:39:08.295Z,1.47
2019-03-12T00:41:36.935Z,2.17
2019-03-12T00:44:05.650Z,2.98
2019-03-12T00:46:34.297Z,1.80
2019-03-12T00:49:02.922Z,2.72
2019-03-12T00:51:31.630Z,2.65
2019-03-12T00:54:00.251Z,1.80
2019-03-12T00:56:28.891Z,2.33
2019-03-12T00:58:57.600Z,2.65
2019-03-12T01:01:26.239Z,1.90
2019-03-12T01:03:54.872Z,2.05
2019-03-12T01:06:23.510Z,2.60
2019-03-12T01:08:52.164Z,2.72
2019-03-12T01:11:20.787Z,1.87
2019-03-12T01:13:49.418Z,1.92
2019-03-12T01:16:18.050Z,1.75
2019-03-12T01:18:46.699Z,2.37
2019-03-12T01:21:15.537Z,2.30
2019-03-12T01:23:44.181Z,3.00
2019-03-12T01:26:12.961Z,2.08
2019-03-12T01:28:41.617Z,2.22
2019-03-12T01:31:10.279Z,2.30
2019-03-12T01:33:38.895Z,1.70
2019-03-12T01:36:07.622Z,2.20
2019-03-12T01:38:36.251Z,2.00
2019-03-12T01:41:04.952Z,1.85
2019-03-12T01:43:33.567Z,1.80
2019-03-12T01:46:02.202Z,3.58
2019-03-12T01:48:30.895Z,2.35
2019-03-12T01:50:59.569Z,2.15
2019-03-12T01:53:28.223Z,2.12
2019-03-12T01:55:56.920Z,2.10
2019-03-12T01:58:25.621Z,2.30
2019-03-12T02:00:54.260Z,1.98
2019-03-12T02:03:22.950Z,1.85
2019-03-12T02:05:51.563Z,2.37
2019-03-12T02:08:20.215Z,2.00
2019-03-12T02:10:48.834Z,1.95
2019-03-12T02:13:17.449Z,3.35
2019-03-12T02:15:46.153Z,2.37
2019-03-12T02:18:14.780Z,2.02
2019-03-12T02:20:43.407Z,2.33
2019-03-12T02:23:12.043Z,3.62
2019-03-12T02:25:40.645Z,2.52
2019-03-12T02:28:09.363Z,2.70
2019-03-12T02:30:38.000Z,3.33
2019-03-12T02:33:06.767Z,3.30
2019-03-12T02:35:35.424Z,3.42
2019-03-12T02:38:04.055Z,3.95
2019-03-12T02:40:32.747Z,3.42
2019-03-12T02:43:01.392Z,2.72
2019-03-12T02:45:30.025Z,3.62
2019-03-12T02:47:58.736Z,3.70
2019-03-12T02:50:27.414Z,3.42
2019-03-12T02:52:56.187Z,3.50
2019-03-12T02:55:24.763Z,3.65
2019-03-12T02:57:53.367Z,3.00
2019-03-12T03:00:22.269Z,3.27
2019-03-12T03:02:50.957Z,3.60
2019-03-12T03:05:19.990Z,3.55
2019-03-12T03:07:53.029Z,2.95
2019-03-12T03:10:21.786Z,3.55
2019-03-12T03:12:50.527Z,3.15
2019-03-12T03:15:21.331Z,2.62
2019-03-12T03:17:50.069Z,3.10
2019-03-12T03:20:18.666Z,2.70
2019-03-12T03:22:47.249Z,2.30
2019-03-12T03:25:16.344Z,2.37
2019-03-12T03:27:45.046Z,2.05
2019-03-12T03:30:16.772Z,2.52
2019-03-12T03:32:45.407Z,2.35
2019-03-12T03:35:14.217Z,2.67
2019-03-12T03:37:42.954Z,3.22
2019-03-12T03:40:14.753Z,2.65
2019-03-12T03:42:43.374Z,2.30
2019-03-12T03:45:12.161Z,2.30
2019-03-12T03:47:40.840Z,2.72
2019-03-12T03:50:09.934Z,2.47
2019-03-12T03:52:38.682Z,4.03
2019-03-12T03:55:09.239Z,2.50
2019-03-12T03:57:37.915Z,3.62
2019-03-12T04:00:08.106Z,2.55
2019-03-12T04:02:36.725Z,2.40
2019-03-12T04:05:05.684Z,2.67
2019-03-12T04:07:34.329Z,2.77
2019-03-12T04:10:03.018Z,2.83
2019-03-12T04:12:31.655Z,2.60
2019-03-12T04:15:00.572Z,2.80
2019-03-12T04:17:29.473Z,2.92
2019-03-12T04:19:58.157Z,3.08
2019-03-12T04:22:26.864Z,2.87
2019-03-12T04:24:55.455Z,3.22
2019-03-12T04:27:24.184Z,2.55
2019-03-12T04:29:52.904Z,3.40
2019-03-12T04:32:21.628Z,3.05
2019-03-12T04:34:50.291Z,3.42
2019-03-12T04:37:19.018Z,3.00
2019-03-12T04:39:47.739Z,2.67
2019-03-12T04:42:16.358Z,2.80
2019-03-12T04:44:45.019Z,3.60
2019-03-12T04:47:13.676Z,3.52
2019-03-12T04:49:42.313Z,2.98
2019-03-12T04:52:10.973Z,2.75
2019-03-12T04:54:39.679Z,2.70
2019-03-12T04:57:08.311Z,2.87
2019-03-12T04:59:36.970Z,2.67
2019-03-12T05:02:05.678Z,2.40
2019-03-12T05:04:34.309Z,2.70
2019-03-12T05:07:03.013Z,3.70
2019-03-12T05:09:31.757Z,2.45
2019-03-12T05:12:00.363Z,2.45
2019-03-12T05:14:30.927Z,2.87
2019-03-12T05:17:10.535Z,3.00
2019-03-12T05:19:41.990Z,2.83
2019-03-12T05:22:10.671Z,2.65
2019-03-12T05:24:39.311Z,2.47
2019-03-12T05:27:08.043Z,2.70
2019-03-12T05:29:36.678Z,2.45
2019-03-12T05:32:05.312Z,3.20
2019-03-12T05:34:34.017Z,2.80
2019-03-12T05:37:02.653Z,2.75
2019-03-12T05:39:31.373Z,2.12
2019-03-12T05:41:59.997Z,2.58
2019-03-12T05:44:28.664Z,2.83
2019-03-12T05:46:57.350Z,3.35
2019-03-12T05:49:25.963Z,2.87
2019-03-12T05:51:54.609Z,2.90
2019-03-12T05:54:23.243Z,2.60
2019-03-12T05:56:51.857Z,3.42
2019-03-12T05:59:20.491Z,3.95
2019-03-12T06:01:49.145Z,2.90
2019-03-12T06:04:17.764Z,3.47
2019-03-12T06:06:46.378Z,3.15
2019-03-12T06:09:15.066Z,3.45
2019-03-12T06:11:43.721Z,3.17
2019-03-12T06:14:12.312Z,3.20
2019-03-12T06:16:41.030Z,3.90
2019-03-12T06:19:09.641Z,3.90
2019-03-12T06:21:38.317Z,3.90
2019-03-12T06:24:06.969Z,2.35
2019-03-12T06:26:35.621Z,4.03
2019-03-12T06:29:04.315Z,3.02
2019-03-12T06:31:50.447Z,3.70
2019-03-12T06:34:38.074Z,3.35
2019-03-12T06:37:25.714Z,4.10
2019-03-12T06:40:22.359Z,3.85
2019-03-12T06:43:06.283Z,3.98
2019-03-12T06:45:44.299Z,3.33
2019-03-12T06:48:30.513Z,3.37
2019-03-12T06:51:14.891Z,4.22
2019-03-12T06:54:04.725Z,3.52
2019-03-12T06:56:46.002Z,4.72
2019-03-12T06:59:28.102Z,3.98
2019-03-12T07:02:04.563Z,4.05
2019-03-12T07:04:50.794Z,3.85
2019-03-12T07:07:45.981Z,3.77
2019-03-12T07:10:30.614Z,4.35
2019-03-12T07:13:14.363Z,3.95
2019-03-12T07:16:00.344Z,3.80
2019-03-12T07:18:37.949Z,4.15
2019-03-12T07:21:28.708Z,4.67
2019-03-12T07:24:08.711Z,4.15
2019-03-12T07:27:05.294Z,4.25
2019-03-12T07:29:51.594Z,4.33
2019-03-12T07:32:39.231Z,3.90
2019-03-12T07:35:26.949Z,4.00
2019-03-12T07:38:04.402Z,4.10
2019-03-12T07:40:52.619Z,3.98
2019-03-12T07:43:35.321Z,3.90
2019-03-12T07:46:15.697Z,4.17
2019-03-12T07:48:50.057Z,4.03
2019-03-12T07:51:37.672Z,4.70
2019-03-12T07:54:22.226Z,3.70
2019-03-12T07:57:13.227Z,4.58
2019-03-12T08:00:15.960Z,3.62
2019-03-12T08:03:21.835Z,4.17
2019-03-12T08:06:10.000Z,4.03
2019-03-12T08:08:56.427Z,3.10
2019-03-12T08:11:30.327Z,3.80
2019-03-12T08:14:27.159Z,3.55
2019-03-12T08:17:03.113Z,3.80
2019-03-12T08:19:49.348Z,4.37
2019-03-12T08:22:33.480Z,3.27
2019-03-12T08:25:18.693Z,2.67
2019-03-12T08:28:02.267Z,3.45
2019-03-12T08:30:41.920Z,3.87
2019-03-12T08:33:28.106Z,3.80
2019-03-12T08:36:18.416Z,4.20
2019-03-12T08:38:56.906Z,3.20
2019-03-12T08:41:50.357Z,2.65
2019-03-12T08:44:29.332Z,4.10
2019-03-12T08:47:26.114Z,3.90
2019-03-12T08:50:19.693Z,2.77
2019-03-12T08:52:53.735Z,2.62
2019-03-12T08:55:40.225Z,2.67
2019-03-12T08:58:22.263Z,2.98
2019-03-12T09:00:57.085Z,2.58
2019-03-12T09:03:37.214Z,3.35
2019-03-12T09:06:12.474Z,2.72
2019-03-12T09:08:47.786Z,2.98
2019-03-12T09:11:28.091Z,2.60
2019-03-12T09:14:27.688Z,2.52
2019-03-12T09:17:12.056Z,2.67
2019-03-12T09:20:01.091Z,2.65
2019-03-12T09:22:57.537Z,2.77
2019-03-12T09:25:43.973Z,4.20
2019-03-12T09:28:28.507Z,2.12
2019-03-12T09:31:14.657Z,2.00
2019-03-12T09:33:55.537Z,1.65
2019-03-12T09:36:41.767Z,2.95
2019-03-12T09:39:21.806Z,2.50
2019-03-12T09:42:13.851Z,2.47
2019-03-12T09:45:04.249Z,2.72
2019-03-12T09:47:58.559Z,2.77
2019-03-12T09:50:34.874Z,2.40
2019-03-12T09:53:21.372Z,2.05
2019-03-12T09:56:09.226Z,1.85
2019-03-12T09:58:55.705Z,2.08
2019-03-12T10:01:35.434Z,2.00
2019-03-12T10:04:25.975Z,1.85
2019-03-12T10:07:02.218Z,2.55
2019-03-12T10:09:48.796Z,2.12
2019-03-12T10:12:24.857Z,1.80
2019-03-12T10:14:59.276Z,2.17
2019-03-12T10:17:37.357Z,2.30
2019-03-12T10:20:42.115Z,1.70
2019-03-12T10:23:32.523Z,1.82
2019-03-12T10:26:08.710Z,3.05
2019-03-12T10:29:02.840Z,2.33
2019-03-12T10:31:59.327Z,1.70
2019-03-12T10:34:40.127Z,2.10
2019-03-12T10:37:25.090Z,2.35
2019-03-12T10:40:03.822Z,3.77
2019-03-12T10:42:39.955Z,1.70
2019-03-12T10:45:27.579Z,2.20
2019-03-12T10:47:56.609Z,2.70
2019-03-12T10:50:25.339Z,2.12
2019-03-12T10:52:54.019Z,2.02
2019-03-12T10:55:22.725Z,1.60
2019-03-12T10:57:51.439Z,1.72
2019-03-12T11:00:20.244Z,1.92
2019-03-12T11:02:49.291Z,3.07
2019-03-12T11:05:18.718Z,1.72
2019-03-12T11:07:47.402Z,1.77
2019-03-12T11:10:16.202Z,2.12
2019-03-12T11:12:45.001Z,2.53
2019-03-12T11:15:13.710Z,3.60
2019-03-12T11:17:49.643Z,1.87
2019-03-12T11:20:13.897Z,2.98
2019-03-12T11:22:42.514Z,2.10
2019-03-12T11:25:11.220Z,1.85
2019-03-12T11:27:39.911Z,2.13
2019-03-12T11:30:11.027Z,3.05
2019-03-12T11:32:40.035Z,2.80
2019-03-12T11:35:09.015Z,1.60
2019-03-12T11:37:37.808Z,1.70
2019-03-12T11:40:08.939Z,1.40
2019-03-12T11:42:37.566Z,1.87
2019-03-12T11:45:13.655Z,2.07
2019-03-12T11:47:36.939Z,2.60
2019-03-12T11:50:07.076Z,2.05
2019-03-12T11:52:35.709Z,2.27
2019-03-12T11:55:04.772Z,1.97
2019-03-12T11:57:33.413Z,1.73
2019-03-12T12:00:02.187Z,2.33
2019-03-12T12:02:31.011Z,1.93
2019-03-12T12:04:59.658Z,2.13
2019-03-12T12:07:28.282Z,2.07
2019-03-12T12:09:56.969Z,2.20
2019-03-12T12:12:25.857Z,3.00
2019-03-12T12:14:54.503Z,2.23
2019-03-12T12:17:23.132Z,1.33
2019-03-12T12:19:51.782Z,2.57
2019-03-12T12:22:20.418Z,2.20
2019-03-12T12:24:49.082Z,2.00
2019-03-12T12:27:17.689Z,2.43
2019-03-12T12:29:46.296Z,2.10
2019-03-12T12:32:15.001Z,1.63
2019-03-12T12:34:43.625Z,1.93
2019-03-12T12:37:13.833Z,2.17
2019-03-12T12:39:42.668Z,2.20
2019-03-12T12:42:11.316Z,2.50
2019-03-12T12:44:39.961Z,1.77
2019-03-12T12:47:08.597Z,2.00
2019-03-12T12:49:37.220Z,3.10
2019-03-12T12:52:05.913Z,2.60
2019-03-12T12:54:34.554Z,1.97
2019-03-12T12:57:03.200Z,2.33
2019-03-12T12:59:31.905Z,2.10
2019-03-12T13:02:00.624Z,1.97
2019-03-12T13:04:29.330Z,2.10
2019-03-12T13:06:58.043Z,2.47
2019-03-12T13:09:26.769Z,2.20
2019-03-12T13:11:55.458Z,3.00
2019-03-12T13:14:24.103Z,2.30
2019-03-12T13:16:52.741Z,2.20
2019-03-12T13:19:21.353Z,1.80
2019-03-12T13:21:50.039Z,2.07
2019-03-12T13:24:18.941Z,2.50
2019-03-12T13:26:47.501Z,1.93
2019-03-12T13:29:16.267Z,2.73
2019-03-12T13:31:44.910Z,1.77
2019-03-12T13:34:13.608Z,2.00
2019-03-12T13:36:42.319Z,2.53
2019-03-12T13:39:11.154Z,2.80
2019-03-12T13:41:40.221Z,1.70
2019-03-12T13:44:09.044Z,2.30
2019-03-12T13:46:37.913Z,2.30
2019-03-12T13:49:06.573Z,2.10
2019-03-12T13:51:35.300Z,2.10
2019-03-12T13:54:03.940Z,1.57
2019-03-12T13:56:32.558Z,2.00
2019-03-12T13:59:01.201Z,1.80
2019-03-12T14:01:29.902Z,2.00
2019-03-12T14:04:10.058Z,2.90
2019-03-12T14:06:28.917Z,2.60
2019-03-12T14:08:57.733Z,1.93
2019-03-12T14:11:26.455Z,2.30
2019-03-12T14:13:55.192Z,1.60
2019-03-12T14:16:24.022Z,2.47
2019-03-12T14:18:52.642Z,1.90
2019-03-12T14:21:21.273Z,1.80
2019-03-12T14:24:01.462Z,1.57
2019-03-12T14:26:30.139Z,1.30
2019-03-12T14:28:58.836Z,1.80
2019-03-12T14:31:27.547Z,1.63
2019-03-12T14:33:56.370Z,1.63
2019-03-12T14:36:25.079Z,1.37
2019-03-12T14:38:53.819Z,2.17
2019-03-12T14:41:22.489Z,1.40
2019-03-12T14:43:51.259Z,1.80
2019-03-12T14:46:20.041Z,1.43
2019-03-12T14:48:57.202Z,1.63
2019-03-12T14:52:17.843Z,1.87
2019-03-12T14:54:46.648Z,1.30
2019-03-12T14:57:15.354Z,1.87
2019-03-12T14:59:44.071Z,1.80
2019-03-12T15:02:12.791Z,2.43
2019-03-12T15:04:41.471Z,1.57
2019-03-12T15:07:10.197Z,2.23
2019-03-12T15:09:38.867Z,1.63
2019-03-12T15:12:07.615Z,2.00
2019-03-12T15:14:36.302Z,1.43
2019-03-12T15:17:05.082Z,1.53
2019-03-12T15:19:33.790Z,1.67
2019-03-12T15:22:02.519Z,1.67
2019-03-12T15:24:31.160Z,1.50
2019-03-12T15:26:59.792Z,2.00
2019-03-12T15:29:28.450Z,1.80
2019-03-12T15:32:04.112Z,1.40
2019-03-12T15:34:27.633Z,1.40
2019-03-12T15:36:56.238Z,1.40
2019-03-12T15:39:24.877Z,1.60
2019-03-12T15:41:53.500Z,1.70
2019-03-12T15:44:22.137Z,1.60
2019-03-12T15:46:50.759Z,1.93
2019-03-12T15:49:19.408Z,2.07
2019-03-12T15:51:48.043Z,1.70
2019-03-12T15:54:16.661Z,1.70
2019-03-12T15:56:45.452Z,2.10
2019-03-12T15:59:14.187Z,1.93
2019-03-12T16:01:42.823Z,1.10
2019-03-12T16:04:11.468Z,1.93
2019-03-12T16:06:40.179Z,1.80
2019-03-12T16:09:08.945Z,1.13
2019-03-12T16:11:37.637Z,0.90
2019-03-12T16:14:06.529Z,1.00
2019-03-12T16:16:35.155Z,1.60
2019-03-12T16:19:03.770Z,1.70
2019-03-12T16:21:32.391Z,0.90
2019-03-12T16:24:01.023Z,1.50
2019-03-12T16:26:29.753Z,0.88
2019-03-12T16:28:58.396Z,1.43
2019-03-12T16:31:27.110Z,1.90
2019-03-12T16:33:55.822Z,1.30
2019-03-12T16:36:24.626Z,1.60
2019-03-12T16:38:53.290Z,1.10
2019-03-12T16:41:21.933Z,1.53
2019-03-12T16:43:50.544Z,1.10
2019-03-12T16:46:19.172Z,1.50
2019-03-12T16:48:47.775Z,1.60
2019-03-12T16:51:16.576Z,1.40
2019-03-12T16:53:45.305Z,1.25
2019-03-12T16:56:13.965Z,1.17
2019-03-12T16:58:42.683Z,1.30
2019-03-12T17:01:11.397Z,1.37
2019-03-12T17:03:41.196Z,1.30
2019-03-12T17:06:09.811Z,1.47
2019-03-12T17:08:39.080Z,1.10
2019-03-12T17:11:07.743Z,1.80
2019-03-12T17:13:36.497Z,1.70
2019-03-12T17:16:05.210Z,1.00
2019-03-12T17:18:34.227Z,0.97
2019-03-12T17:21:03.307Z,1.17
2019-03-12T17:23:37.784Z,0.88
2019-03-12T17:26:06.734Z,1.15
2019-03-12T17:28:36.025Z,1.57
2019-03-12T17:31:07.391Z,1.10
2019-03-12T17:33:39.589Z,0.93
2019-03-12T17:36:10.684Z,1.10
2019-03-12T17:38:46.705Z,1.02
2019-03-12T17:41:10.537Z,1.00
2019-03-12T17:43:39.445Z,1.00
2019-03-12T17:46:08.478Z,1.10
2019-03-12T17:48:39.354Z,0.95
2019-03-12T17:51:08.059Z,1.10
2019-03-12T17:53:40.423Z,1.00
2019-03-12T17:56:09.112Z,0.60
2019-03-12T17:58:37.753Z,1.10
2019-03-12T18:01:06.379Z,1.90
2019-03-12T18:03:35.045Z,0.90
2019-03-12T18:06:03.842Z,0.87
2019-03-12T18:08:32.478Z,0.60
2019-03-12T18:11:01.156Z,1.12
2019-03-12T18:13:29.774Z,0.87
2019-03-12T18:15:58.419Z,0.80
2019-03-12T18:18:27.078Z,1.40
2019-03-12T18:20:55.717Z,1.20
2019-03-12T18:23:24.427Z,1.33
2019-03-12T18:25:53.138Z,1.05
2019-03-12T18:28:21.861Z,0.90
2019-03-12T18:30:50.587Z,1.25
2019-03-12T18:33:19.343Z,1.20
2019-03-12T18:35:48.002Z,0.90
2019-03-12T18:38:16.703Z,1.10
2019-03-12T18:40:45.353Z,0.80
2019-03-12T18:43:15.000Z,1.00
2019-03-12T18:45:43.952Z,1.00
2019-03-12T18:48:12.574Z,0.93
2019-03-12T18:50:41.348Z,1.00
2019-03-12T18:53:09.969Z,0.90
2019-03-12T18:56:06.803Z,1.05
2019-03-12T18:58:38.446Z,1.10
2019-03-12T19:01:15.098Z,0.83
2019-03-12T19:03:47.438Z,1.20
2019-03-12T19:06:16.384Z,0.70
2019-03-12T19:08:48.049Z,0.90
2019-03-12T19:11:16.522Z,0.88
2019-03-12T19:13:46.146Z,1.03
2019-03-12T19:16:14.973Z,1.00
2019-03-12T19:18:44.585Z,1.00
2019-03-12T19:21:13.523Z,1.03
2019-03-12T19:23:42.244Z,1.13
2019-03-12T19:26:14.290Z,0.90
2019-03-12T19:28:44.459Z,1.17
2019-03-12T19:31:38.053Z,1.00
2019-03-12T19:34:14.240Z,0.80
2019-03-12T19:36:54.440Z,1.23
2019-03-12T19:39:23.260Z,1.07
2019-03-12T19:41:53.330Z,1.37
2019-03-12T19:44:26.164Z,1.13
2019-03-12T19:46:55.069Z,1.17
2019-03-12T19:49:23.928Z,1.07
2019-03-12T19:51:52.701Z,0.90
2019-03-12T19:54:21.516Z,0.98
2019-03-12T19:56:50.517Z,0.97
2019-03-12T19:59:19.530Z,1.10
2019-03-12T20:01:49.834Z,1.20
2019-03-12T20:04:18.576Z,0.93
2019-03-12T20:07:06.903Z,1.27
2019-03-12T20:10:16.270Z,1.20
2019-03-12T20:13:24.435Z,0.83
2019-03-12T20:16:28.197Z,0.97
2019-03-12T20:19:33.304Z,1.10
2019-03-12T20:22:38.645Z,1.50
2019-03-12T20:25:44.488Z,0.97
2019-03-12T20:29:00.596Z,0.90
2019-03-12T20:31:59.435Z,1.00
2019-03-12T20:35:08.577Z,1.60
2019-03-12T20:38:17.828Z,1.07
2019-03-12T20:41:24.449Z,1.33
2019-03-12T20:44:29.564Z,1.00
2019-03-12T20:47:38.882Z,0.90
2019-03-12T20:50:42.910Z,1.50
2019-03-12T20:53:50.452Z,1.10
2019-03-12T20:56:56.072Z,1.27
2019-03-12T21:00:01.974Z,1.13
2019-03-12T21:03:06.953Z,0.90
2019-03-12T21:06:25.799Z,1.40
2019-03-12T21:09:46.308Z,1.40
2019-03-12T21:13:07.815Z,1.50
2019-03-12T21:16:05.683Z,1.10
2019-03-12T21:19:01.424Z,1.60
2019-03-12T21:22:13.650Z,1.40
2019-03-12T21:25:25.924Z,1.10
2019-03-12T21:28:34.780Z,1.53
2019-03-12T21:31:03.768Z,1.10
2019-03-12T21:33:32.836Z,1.57
2019-03-12T21:36:02.053Z,1.20
2019-03-12T21:38:35.912Z,1.33
2019-03-12T21:41:05.323Z,1.32
2019-03-12T21:43:34.395Z,1.47
2019-03-12T21:46:03.218Z,1.80
2019-03-12T21:48:32.397Z,2.17
2019-03-12T21:51:03.115Z,1.27
2019-03-12T21:53:31.911Z,1.10
2019-03-12T21:56:01.856Z,1.43
2019-03-12T21:58:30.657Z,1.40
2019-03-12T22:01:00.303Z,1.80
2019-03-12T22:03:29.252Z,1.40
2019-03-12T22:05:58.702Z,1.30
2019-03-12T22:08:28.657Z,1.20
2019-03-12T22:10:57.829Z,1.40
2019-03-12T22:13:26.512Z,1.40
2019-03-12T22:15:55.608Z,1.83
2019-03-12T22:18:24.317Z,2.20
2019-03-12T22:20:53.680Z,1.60
2019-03-12T22:23:25.569Z,1.23
2019-03-12T22:25:56.328Z,1.60
2019-03-12T22:28:28.801Z,1.23
2019-03-12T22:31:03.446Z,1.40
2019-03-12T22:33:32.419Z,1.50
2019-03-12T22:36:01.404Z,1.40
2019-03-12T22:38:33.249Z,1.10
2019-03-12T22:41:05.796Z,1.20
2019-03-12T22:43:34.929Z,1.20
2019-03-12T22:46:04.072Z,1.07
2019-03-12T22:48:32.843Z,1.13
2019-03-12T22:51:04.916Z,1.57
2019-03-12T22:53:51.455Z,1.23
2019-03-12T22:56:20.188Z,1.70
2019-03-12T22:58:48.810Z,1.30
2019-03-12T23:01:17.892Z,1.67
2019-03-12T23:03:46.994Z,1.33
2019-03-12T23:06:15.869Z,1.53
2019-03-12T23:08:44.731Z,1.40
2019-03-12T23:11:13.688Z,1.30
2019-03-12T23:13:42.520Z,1.70
2019-03-12T23:16:11.536Z,1.57
2019-03-12T23:18:40.535Z,1.53
2019-03-12T23:21:09.464Z,1.70
2019-03-12T23:23:38.576Z,1.57
2019-03-12T23:26:07.933Z,1.13
2019-03-12T23:28:36.978Z,1.17
2019-03-12T23:31:06.172Z,1.50
2019-03-12T23:33:35.572Z,1.30
2019-03-12T23:36:04.519Z,1.70
2019-03-12T23:38:33.331Z,1.57
2019-03-12T23:41:02.575Z,1.13
2019-03-12T23:43:31.756Z,1.37
2019-03-12T23:46:00.777Z,0.93
2019-03-12T23:48:29.910Z,0.40
2019-03-12T23:51:07.448Z,0.50
2019-03-12T23:53:36.513Z,0.50
2019-03-12T23:56:05.540Z,0.50
2019-03-12T23:58:38.441Z,0.72
